Главная страница
METAR-TAF:

METAR-TAF

Аэропорты :

военная авиабаза

Линчёпинг, Швеция

широта: 58-24N, долгота: 015-31E, высота над уровнем моря: 93 м

Текущие метеонаблюдения

Эта сводка был подготовлена 37 минут назад, в 04:50 UTC
Ветер 15 Узел от юго-западный
Температура 12°C
Влажность 94%
Давление 1002 hPa
Видимость 10 км и более
небольшой дождь

METAR: ESCF 150450Z AUTO 22015KT 9999 -RA OVC017/// 12/11 Q1002

Время: 07:27 (05:27 UTC)


TAF: отсутствует

Метеонаблюдения и прогнозы для более 4000 аэропортов (сводки METAR и TAF).

Имеющиеся станции представлены на карте желтыми и красными точками.

Чтобы увидеть название станции, наведите на нее мышь.

Затем щелкните, чтобы увидеть метеонаблюдения и метеопрогнозы.

Управление картой: чтобы увеличить масштаб, щелкните зеленые кнопки с черным крестиком; чтобы уменьшить масштаб, щелкните зеленую кнопку с тире; для просмотра соседних карт щелкайте зеленые стрелки.


METAR-TAF: